KTHA/THA METAR and TAF weather

Enter ICAO airport designator
Station Type Date Time Source
KTHA METAR 2019/12/09 00:35 UTC NOAA

KTHA 090035Z AUTO 16009KT 10SM BKN042 BKN060 12/04 A3007 RMK A01


Station Type Date Time Source
KTHA Decoded METAR 2019/12/09 00:35 UTC NOAA

Station name not available
Dec 08, 2019 - 07:35 PM EST / 2019.12.09 0035 UTC
Wind: from the SSE (160 degrees) at 10 MPH (9 KT):0
Visibility: 10 mile(s):0
Sky conditions: mostly cloudy
Temperature: 53 F (12 C)
Dew Point: 39 F (4 C)
Relative Humidity: 57%
Pressure (altimeter): 30.07 in. Hg (1018 hPa)
ob: KTHA 090035Z AUTO 16009KT 10SM BKN042 BKN060 12/04 A3007 RMK A01
cycle: 0

Station Type Date Time Source
KTHA TAF UTC NOAA

Error!

Example: see airport list